Terminal Aerodrome Forecast
Issued by NWS Wichita, KS

Home | Current Version | Previous Version | Text Only | Print | Product List | Glossary On
Versions: 1 2 3 4 5 6 7 8 9 10 11 12 13 14
000
FTUS43 KICT 282339
TAFICT
TAF
KICT 282339Z 2900/2924 27013KT P6SM SCT250
     FM290500 32015KT P6SM SCT250
     FM291100 35012G24KT P6SM SCT250
     FM291300 35014KT P6SM BKN035
     FM291500 35020G28KT P6SM BKN035
     FM292300 35014KT P6SM SCT035=

USA.gov is the U.S. government's official web portal to all federal, state and local government web resources and services.